Time;durP1;ratioP1;P1;durP2;ratioP2;P2;SDS_P1;SDS_P2;PMS_P1;PMS_P2;Temp;Humidity;BMP_temperature;BMP_pressure;BME280_temperature;BME280_humidity;BME280_pressure;Samples;Min_cycle;Max_cycle;Signal;HPM_P1;HPM_P2
2021/12/09 00:01:22;;;;;;;19.80;9.27;;;1.80;99.90;;;;;;5014956;28;20045;-76
2021/12/09 00:03:52;;;;;;;14.48;8.98;;;1.80;99.90;;;;;;5026817;28;20047;-76
2021/12/09 00:06:22;;;;;;;21.13;9.30;;;1.70;99.90;;;;;;5024497;28;20084;-75
2021/12/09 00:08:48;;;;;;;17.95;8.80;;;1.70;99.90;;;;;;5025547;28;20042;-75
2021/12/09 00:11:14;;;;;;;21.80;9.73;;;1.70;99.90;;;;;;5024323;28;20030;-75
2021/12/09 00:13:39;;;;;;;21.67;10.38;;;1.70;99.90;;;;;;5026104;28;20038;-75
2021/12/09 00:16:06;;;;;;;14.95;9.35;;;1.70;99.90;;;;;;5010723;28;20037;-75
2021/12/09 00:18:32;;;;;;;21.65;11.00;;;1.70;99.90;;;;;;5045730;28;20124;-75
2021/12/09 00:20:57;;;;;;;18.92;9.93;;;1.70;99.90;;;;;;5032697;28;20563;-75
2021/12/09 00:23:23;;;;;;;17.65;10.05;;;1.70;99.90;;;;;;5029736;28;20095;-75
2021/12/09 00:25:49;;;;;;;16.60;10.63;;;1.70;99.90;;;;;;5031125;28;20124;-75
2021/12/09 00:28:15;;;;;;;17.92;9.60;;;1.70;99.90;;;;;;5040449;23;20116;-73
2021/12/09 00:30:41;;;;;;;20.55;10.10;;;1.70;99.90;;;;;;5021188;28;20042;-73
2021/12/09 00:33:10;;;;;;;17.35;10.15;;;1.70;99.90;;;;;;5028125;28;20049;-73
2021/12/09 00:35:50;;;;;;;14.20;9.52;;;1.60;99.90;;;;;;5022414;28;20509;-73
2021/12/09 00:38:34;;;;;;;19.90;10.45;;;1.60;99.90;;;;;;5016105;28;20594;-73
2021/12/09 00:41:02;;;;;;;16.90;10.35;;;1.60;99.90;;;;;;5009323;28;20476;-73
2021/12/09 00:43:28;;;;;;;21.63;11.32;;;1.60;99.90;;;;;;5009698;28;20491;-73
2021/12/09 00:45:54;;;;;;;22.27;11.95;;;1.60;99.90;;;;;;5010885;28;20059;-73
2021/12/09 00:48:20;;;;;;;21.35;12.25;;;1.70;99.90;;;;;;5011664;28;20392;-73
2021/12/09 00:50:46;;;;;;;20.92;11.52;;;1.70;99.90;;;;;;4991500;28;20052;-73
2021/12/09 00:53:11;;;;;;;20.50;11.13;;;1.70;99.90;;;;;;5008991;28;20030;-73
2021/12/09 00:55:38;;;;;;;19.23;10.70;;;1.70;99.90;;;;;;5010967;28;20100;-73
2021/12/09 00:58:04;;;;;;;22.13;10.80;;;1.70;99.90;;;;;;5010141;28;20416;-73
2021/12/09 01:00:31;;;;;;;22.55;10.10;;;1.70;99.90;;;;;;5007877;28;20522;-73
2021/12/09 01:02:58;;;;;;;19.90;10.15;;;1.70;99.90;;;;;;5009374;28;20033;-73
2021/12/09 01:05:25;;;;;;;21.92;10.30;;;1.60;99.90;;;;;;5010680;28;20439;-74
2021/12/09 01:07:51;;;;;;;20.67;10.30;;;1.50;99.90;;;;;;5006240;28;20045;-73
2021/12/09 01:10:17;;;;;;;19.83;10.30;;;1.50;99.90;;;;;;5011528;28;20052;-73
2021/12/09 01:12:44;;;;;;;24.98;10.73;;;1.50;99.90;;;;;;5010476;28;20049;-73
2021/12/09 01:15:13;;;;;;;17.15;10.18;;;1.50;99.90;;;;;;5008836;28;20045;-73
2021/12/09 01:17:39;;;;;;;19.15;10.73;;;1.60;99.90;;;;;;5007289;28;20045;-73
2021/12/09 01:20:08;;;;;;;18.85;10.57;;;1.60;99.90;;;;;;5010227;28;20034;-73
2021/12/09 01:22:39;;;;;;;18.60;10.75;;;1.60;99.90;;;;;;5009781;28;20408;-73
2021/12/09 01:25:07;;;;;;;24.45;11.65;;;1.70;99.90;;;;;;5007984;28;20439;-73
2021/12/09 01:27:36;;;;;;;21.90;10.65;;;1.70;99.90;;;;;;5006651;28;20439;-73
2021/12/09 01:30:10;;;;;;;18.75;10.15;;;1.70;99.90;;;;;;5012163;28;20438;-73
2021/12/09 01:32:36;;;;;;;17.52;10.10;;;1.70;99.90;;;;;;5008264;28;20568;-73
2021/12/09 01:35:02;;;;;;;17.42;10.52;;;1.60;99.90;;;;;;5011877;28;20037;-73
2021/12/09 01:37:28;;;;;;;19.63;10.30;;;1.70;99.90;;;;;;5008634;28;20609;-74
2021/12/09 01:39:54;;;;;;;16.55;9.88;;;1.60;99.90;;;;;;5006979;28;20037;-73
2021/12/09 01:42:20;;;;;;;17.38;10.40;;;1.60;99.90;;;;;;5010349;28;20057;-73
2021/12/09 01:44:46;;;;;;;18.63;10.98;;;1.60;99.90;;;;;;5007506;28;20040;-73
2021/12/09 01:47:12;;;;;;;23.02;10.73;;;1.60;99.90;;;;;;5008291;28;20038;-73
2021/12/09 01:49:38;;;;;;;16.00;10.73;;;1.60;99.90;;;;;;5009188;28;20060;-73
2021/12/09 01:52:05;;;;;;;20.40;10.50;;;1.60;99.90;;;;;;5005637;28;20076;-73
2021/12/09 01:54:31;;;;;;;20.25;10.52;;;1.60;99.90;;;;;;5006840;28;20049;-73
2021/12/09 01:56:58;;;;;;;14.32;10.23;;;1.50;99.90;;;;;;5020871;28;20057;-73
2021/12/09 01:59:25;;;;;;;18.90;10.93;;;1.50;99.90;;;;;;5007898;28;20443;-73
2021/12/09 02:01:51;;;;;;;19.98;12.10;;;1.40;99.90;;;;;;5007486;28;20033;-73
2021/12/09 02:04:17;;;;;;;19.73;11.32;;;1.40;99.90;;;;;;5007006;28;20095;-72
2021/12/09 02:06:43;;;;;;;18.17;11.93;;;1.30;99.90;;;;;;5006114;28;20049;-73
2021/12/09 02:09:11;;;;;;;22.80;12.60;;;1.30;99.90;;;;;;5008008;28;20064;-73
2021/12/09 02:11:38;;;;;;;23.05;12.65;;;1.40;99.90;;;;;;5008684;28;20046;-73
2021/12/09 02:14:05;;;;;;;22.10;12.60;;;1.40;99.90;;;;;;4990749;28;20060;-73
2021/12/09 02:16:31;;;;;;;26.92;12.75;;;1.40;99.90;;;;;;5008329;28;20045;-73
2021/12/09 02:18:58;;;;;;;27.08;13.57;;;1.40;99.90;;;;;;4990462;28;20042;-73
2021/12/09 02:21:27;;;;;;;22.65;14.43;;;1.40;99.90;;;;;;5006477;28;20628;-73
2021/12/09 02:23:59;;;;;;;23.65;14.00;;;1.40;99.90;;;;;;5010239;28;20069;-73
2021/12/09 02:26:29;;;;;;;25.73;13.00;;;1.50;99.90;;;;;;5008509;28;20558;-72
2021/12/09 02:28:56;;;;;;;22.27;12.20;;;1.50;99.90;;;;;;5007799;28;20124;-73
2021/12/09 02:31:23;;;;;;;25.55;12.27;;;1.40;99.90;;;;;;5007154;28;20046;-73
2021/12/09 02:33:49;;;;;;;19.77;11.65;;;1.40;99.90;;;;;;5010338;28;20457;-73
2021/12/09 02:36:15;;;;;;;20.10;10.32;;;1.30;99.90;;;;;;5006167;28;20038;-73
2021/12/09 02:38:45;;;;;;;22.92;11.40;;;1.20;99.90;;;;;;5004966;28;20049;-73
2021/12/09 02:41:16;;;;;;;22.02;12.70;;;1.20;99.90;;;;;;5005711;28;22498;-73
2021/12/09 02:43:43;;;;;;;26.38;14.73;;;1.10;99.90;;;;;;5003184;28;20499;-73
2021/12/09 02:46:09;;;;;;;26.33;14.70;;;1.10;99.90;;;;;;5004583;28;20088;-73
2021/12/09 02:48:35;;;;;;;28.38;14.32;;;1.20;99.90;;;;;;5003178;28;20443;-73
2021/12/09 02:51:02;;;;;;;26.95;15.27;;;1.20;99.90;;;;;;5004784;28;20053;-74
2021/12/09 02:53:27;;;;;;;23.17;14.80;;;1.20;99.90;;;;;;5007853;28;20402;-73
2021/12/09 02:55:53;;;;;;;20.48;14.48;;;1.20;99.90;;;;;;5008701;28;20117;-73
2021/12/09 02:58:19;;;;;;;25.63;14.18;;;1.30;99.90;;;;;;4991252;28;20435;-73
2021/12/09 03:01:08;;;;;;;23.02;14.10;;;1.20;99.90;;;;;;5008086;28;20088;-73
2021/12/09 03:03:34;;;;;;;26.20;14.50;;;1.20;99.90;;;;;;5005304;28;20048;-73
2021/12/09 03:06:00;;;;;;;29.50;16.45;;;1.20;99.90;;;;;;5006991;28;20435;-73
2021/12/09 03:08:37;;;;;;;34.75;16.38;;;1.20;99.90;;;;;;5007882;28;20451;-73
2021/12/09 03:11:11;;;;;;;29.58;16.50;;;1.20;99.90;;;;;;5006817;28;20395;-73
2021/12/09 03:13:38;;;;;;;25.40;16.20;;;1.20;99.90;;;;;;5005956;28;20423;-73
2021/12/09 03:16:05;;;;;;;29.00;15.98;;;1.30;99.90;;;;;;5008862;28;20057;-74
2021/12/09 03:18:47;;;;;;;30.25;15.85;;;1.20;99.90;;;;;;5007829;28;20385;-74
2021/12/09 03:21:30;;;;;;;26.80;16.60;;;1.30;99.90;;;;;;5008601;28;21393;-74
2021/12/09 03:23:57;;;;;;;26.40;15.93;;;1.30;99.90;;;;;;4991160;28;20041;-74
2021/12/09 03:26:29;;;;;;;30.33;16.02;;;1.30;99.90;;;;;;5006794;28;20717;-74
2021/12/09 03:29:00;;;;;;;26.65;15.93;;;1.30;99.90;;;;;;5007404;28;20045;-74
2021/12/09 03:31:27;;;;;;;29.45;16.52;;;1.30;99.90;;;;;;4991062;28;20072;-74
2021/12/09 03:33:53;;;;;;;28.20;16.95;;;1.30;99.90;;;;;;5005993;28;20442;-74
2021/12/09 03:36:19;;;;;;;25.13;15.57;;;1.30;99.90;;;;;;5007292;28;20045;-73
2021/12/09 03:38:45;;;;;;;24.95;16.00;;;1.30;99.90;;;;;;5014325;28;20038;-73
2021/12/09 03:41:10;;;;;;;28.77;17.60;;;1.30;99.90;;;;;;5007206;28;20566;-74
2021/12/09 03:43:37;;;;;;;27.23;16.48;;;1.30;99.90;;;;;;5010001;28;20046;-73
2021/12/09 03:46:03;;;;;;;26.02;16.02;;;1.30;99.90;;;;;;5007776;28;20592;-73
2021/12/09 03:48:30;;;;;;;25.05;16.13;;;1.20;99.90;;;;;;5009378;28;20392;-73
2021/12/09 03:50:57;;;;;;;26.20;15.82;;;1.20;99.90;;;;;;5009759;28;20056;-73
2021/12/09 03:53:23;;;;;;;26.88;14.73;;;1.20;99.90;;;;;;5013410;28;20404;-73
2021/12/09 03:55:50;;;;;;;26.45;15.57;;;1.10;99.90;;;;;;5013218;28;20399;-73
2021/12/09 03:58:16;;;;;;;26.67;15.68;;;1.10;99.90;;;;;;5015414;28;20515;-73
2021/12/09 04:00:42;;;;;;;27.90;16.70;;;1.10;99.90;;;;;;5009594;28;20120;-73
2021/12/09 04:03:08;;;;;;;28.60;16.38;;;1.10;99.90;;;;;;5009350;28;20069;-73
2021/12/09 04:05:36;;;;;;;29.98;16.88;;;1.10;99.90;;;;;;5009365;28;20100;-73
2021/12/09 04:08:03;;;;;;;30.27;17.42;;;1.10;99.90;;;;;;5013242;28;20052;-74
2021/12/09 04:10:30;;;;;;;32.67;17.52;;;1.10;99.90;;;;;;5010027;28;20568;-73
2021/12/09 04:12:56;;;;;;;24.63;16.08;;;1.00;99.90;;;;;;5017717;28;20041;-74
2021/12/09 04:15:22;;;;;;;27.63;15.98;;;1.00;99.90;;;;;;5016869;28;21966;-73
2021/12/09 04:17:48;;;;;;;29.58;15.48;;;1.00;99.90;;;;;;5011596;28;20030;-73
2021/12/09 04:20:13;;;;;;;30.73;15.30;;;0.90;99.90;;;;;;5009114;28;20411;-73
2021/12/09 04:22:41;;;;;;;22.15;14.70;;;0.90;99.90;;;;;;5010496;28;20038;-73
2021/12/09 04:25:07;;;;;;;27.40;16.67;;;0.90;99.90;;;;;;5009971;28;20131;-73
2021/12/09 04:27:33;;;;;;;29.42;17.55;;;0.80;99.90;;;;;;5011821;28;20622;-73
2021/12/09 04:29:58;;;;;;;31.83;17.80;;;0.80;99.90;;;;;;5010075;28;20048;-73
2021/12/09 04:32:24;;;;;;;36.80;19.50;;;0.80;99.90;;;;;;5008249;28;20040;-73
2021/12/09 04:34:53;;;;;;;36.08;19.80;;;0.90;99.90;;;;;;5011216;28;20077;-72
2021/12/09 04:37:20;;;;;;;35.22;19.00;;;0.90;99.90;;;;;;5011232;28;21562;-72
2021/12/09 04:39:46;;;;;;;36.08;19.35;;;0.90;99.90;;;;;;4993795;28;20427;-72
2021/12/09 04:42:12;;;;;;;30.40;18.38;;;0.90;99.90;;;;;;5012318;28;20147;-72
2021/12/09 04:44:37;;;;;;;30.50;18.85;;;0.90;99.90;;;;;;5011298;28;20148;-72
2021/12/09 04:47:04;;;;;;;33.47;18.63;;;0.90;99.90;;;;;;5010412;28;20619;-73
2021/12/09 04:49:29;;;;;;;36.67;19.95;;;0.90;99.90;;;;;;5010794;28;20058;-72
2021/12/09 04:51:57;;;;;;;35.67;19.27;;;0.90;99.90;;;;;;5008607;28;20488;-72
2021/12/09 04:54:24;;;;;;;38.58;20.58;;;0.90;99.90;;;;;;5014335;28;20042;-72
2021/12/09 04:56:49;;;;;;;40.28;21.23;;;0.90;99.90;;;;;;5009269;28;20041;-73
2021/12/09 04:59:15;;;;;;;32.63;20.55;;;0.90;99.90;;;;;;5011268;28;20046;-72
2021/12/09 05:01:46;;;;;;;32.28;20.70;;;1.00;99.90;;;;;;5009044;28;20042;-72
2021/12/09 05:04:12;;;;;;;34.97;20.83;;;1.00;99.90;;;;;;5011340;28;20560;-72
2021/12/09 05:06:38;;;;;;;36.58;19.48;;;0.90;99.90;;;;;;5008523;28;20134;-72
2021/12/09 05:09:09;;;;;;;36.92;20.10;;;1.00;99.90;;;;;;5012130;28;20081;-72
2021/12/09 05:14:05;;;;;;;34.10;19.85;;;0.90;99.90;;;;;;5004646;28;20049;-72
2021/12/09 05:16:31;;;;;;;41.03;19.60;;;0.90;99.90;;;;;;5007197;28;20111;-71
2021/12/09 05:18:58;;;;;;;32.42;18.73;;;0.90;99.90;;;;;;5007930;28;20033;-72
2021/12/09 05:21:30;;;;;;;33.50;18.80;;;0.90;99.90;;;;;;5006836;28;20029;-72
2021/12/09 05:23:57;;;;;;;32.47;19.77;;;0.80;99.90;;;;;;5008944;28;20530;-72
2021/12/09 05:26:28;;;;;;;34.97;19.58;;;0.80;99.90;;;;;;5010576;28;20120;-72
2021/12/09 05:28:56;;;;;;;39.38;21.13;;;0.80;99.90;;;;;;5012242;28;20420;-72
2021/12/09 05:34:08;;;;;;;40.08;21.48;;;0.80;99.90;;;;;;5008866;28;20046;-72
2021/12/09 05:36:34;;;;;;;40.85;20.98;;;0.80;99.90;;;;;;5011617;28;20034;-72
2021/12/09 05:39:00;;;;;;;43.63;21.73;;;0.80;99.90;;;;;;5005485;28;20046;-71
2021/12/09 05:41:26;;;;;;;38.75;21.00;;;0.80;99.90;;;;;;5009514;28;20038;-72
2021/12/09 05:43:52;;;;;;;35.95;20.88;;;0.80;99.90;;;;;;5009107;28;20053;-71
2021/12/09 05:46:17;;;;;;;39.25;19.88;;;0.80;99.90;;;;;;4992078;28;20069;-71
2021/12/09 05:48:43;;;;;;;41.33;20.25;;;0.80;99.90;;;;;;5004090;28;20115;-72
2021/12/09 05:51:09;;;;;;;37.97;18.98;;;0.80;99.90;;;;;;5008750;28;20049;-72
2021/12/09 05:53:35;;;;;;;39.88;19.63;;;0.80;99.90;;;;;;5006775;28;20045;-71
2021/12/09 05:56:00;;;;;;;32.33;18.73;;;0.70;99.90;;;;;;5008530;28;20034;-71
2021/12/09 05:58:26;;;;;;;33.90;18.85;;;0.70;99.90;;;;;;5009652;28;20049;-72
2021/12/09 06:00:53;;;;;;;37.83;18.85;;;0.70;99.90;;;;;;5004592;28;20038;-72
2021/12/09 06:03:20;;;;;;;29.88;17.60;;;0.60;99.90;;;;;;5006597;28;20450;-71
2021/12/09 06:05:47;;;;;;;41.72;18.90;;;0.50;99.90;;;;;;5006565;28;20053;-71
2021/12/09 06:08:13;;;;;;;35.03;19.75;;;0.50;99.90;;;;;;5007826;28;20068;-72
2021/12/09 06:10:39;;;;;;;38.38;19.58;;;0.50;99.90;;;;;;5006098;28;20042;-71
2021/12/09 06:13:05;;;;;;;35.70;20.13;;;0.50;99.90;;;;;;5006412;28;20041;-72
2021/12/09 06:15:30;;;;;;;41.15;19.40;;;0.50;99.90;;;;;;5008187;28;20169;-71
2021/12/09 06:17:56;;;;;;;29.17;17.45;;;0.50;99.90;;;;;;5006935;28;20694;-71
2021/12/09 06:20:25;;;;;;;38.45;19.23;;;0.40;99.90;;;;;;5005023;28;20046;-71
2021/12/09 06:22:50;;;;;;;35.28;19.75;;;0.40;99.90;;;;;;5010016;28;20049;-71
2021/12/09 06:25:18;;;;;;;37.20;20.98;;;0.40;99.90;;;;;;4977716;28;20038;-71
2021/12/09 06:27:50;;;;;;;42.42;18.40;;;0.40;99.90;;;;;;4978189;28;20038;-72
2021/12/09 06:30:18;;;;;;;36.67;17.80;;;0.40;99.90;;;;;;4993620;28;20058;-71
2021/12/09 06:32:44;;;;;;;28.65;15.90;;;0.40;99.90;;;;;;5009376;28;20088;-71
2021/12/09 06:35:11;;;;;;;32.67;17.65;;;0.30;99.90;;;;;;5012568;28;20057;-71
2021/12/09 06:37:39;;;;;;;40.60;18.30;;;0.30;99.90;;;;;;5014840;28;20037;-72
2021/12/09 06:40:10;;;;;;;42.22;20.85;;;0.30;99.90;;;;;;5016771;28;20554;-71
2021/12/09 06:42:36;;;;;;;45.17;19.33;;;0.30;99.90;;;;;;5013468;28;20097;-71
2021/12/09 06:45:03;;;;;;;39.00;18.83;;;0.30;99.90;;;;;;5011486;28;20049;-72
2021/12/09 06:47:29;;;;;;;38.78;19.23;;;0.30;99.90;;;;;;5014963;28;20496;-73
2021/12/09 06:49:55;;;;;;;40.58;20.40;;;0.30;99.90;;;;;;5011155;28;20068;-72
2021/12/09 06:52:21;;;;;;;44.42;20.42;;;0.30;99.90;;;;;;5010700;28;20038;-72
2021/12/09 06:54:46;;;;;;;38.42;21.10;;;0.40;99.90;;;;;;5003955;28;20036;-72
2021/12/09 06:57:12;;;;;;;52.08;22.33;;;0.40;99.90;;;;;;5005582;28;20050;-71
2021/12/09 06:59:38;;;;;;;39.25;21.63;;;0.40;99.90;;;;;;4975766;28;20038;-72
2021/12/09 07:02:04;;;;;;;43.45;22.23;;;0.50;99.90;;;;;;5005797;28;20128;-71
2021/12/09 07:04:29;;;;;;;44.75;22.23;;;0.50;99.90;;;;;;5003556;28;20076;-72
2021/12/09 07:06:55;;;;;;;41.83;22.77;;;0.50;99.90;;;;;;5006969;28;20049;-71
2021/12/09 07:09:27;;;;;;;39.10;21.02;;;0.60;99.90;;;;;;5007862;28;20037;-72
2021/12/09 07:11:53;;;;;;;40.42;20.75;;;0.60;99.90;;;;;;5003167;28;20488;-71
2021/12/09 07:14:19;;;;;;;42.00;19.67;;;0.60;99.90;;;;;;5005320;28;20049;-72
2021/12/09 07:16:44;;;;;;;35.22;21.33;;;0.60;99.90;;;;;;5005862;28;20037;-71
2021/12/09 07:19:10;;;;;;;37.85;19.98;;;0.60;99.90;;;;;;4977401;28;20145;-72
2021/12/09 07:21:36;;;;;;;39.75;20.05;;;0.60;99.90;;;;;;5006205;28;20201;-71
2021/12/09 07:24:02;;;;;;;36.80;18.90;;;0.60;99.90;;;;;;5004832;28;20042;-71
2021/12/09 07:26:29;;;;;;;43.08;20.40;;;0.60;99.90;;;;;;4995638;28;20151;-72
2021/12/09 07:28:56;;;;;;;38.67;19.77;;;0.60;99.90;;;;;;5002102;28;20431;-72
2021/12/09 07:31:24;;;;;;;40.83;20.20;;;0.60;99.90;;;;;;5023757;28;20890;-71
2021/12/09 07:33:50;;;;;;;43.55;19.52;;;0.60;99.90;;;;;;5001814;28;20420;-71
2021/12/09 07:36:16;;;;;;;34.95;19.65;;;0.60;99.90;;;;;;5003650;28;20061;-70
2021/12/09 07:38:45;;;;;;;39.45;20.45;;;0.50;99.90;;;;;;5003913;28;20412;-71
2021/12/09 07:41:14;;;;;;;36.30;21.00;;;0.50;99.90;;;;;;5004889;28;20037;-71
2021/12/09 07:43:40;;;;;;;35.05;19.88;;;0.50;99.90;;;;;;5004768;28;20466;-71
2021/12/09 07:46:06;;;;;;;41.60;19.30;;;0.50;99.90;;;;;;5010413;28;20403;-71
2021/12/09 07:48:31;;;;;;;44.40;20.67;;;0.60;99.90;;;;;;5008771;28;20038;-71
2021/12/09 07:50:57;;;;;;;43.05;19.63;;;0.60;99.90;;;;;;5005761;28;20033;-71
2021/12/09 07:53:23;;;;;;;38.75;19.75;;;0.50;99.90;;;;;;5005578;28;20060;-71
2021/12/09 07:55:51;;;;;;;41.88;20.83;;;0.50;99.90;;;;;;4998952;28;20039;-71
2021/12/09 07:58:18;;;;;;;43.97;20.63;;;0.50;99.90;;;;;;5012282;28;20109;-71
2021/12/09 08:00:44;;;;;;;38.72;20.05;;;0.50;99.90;;;;;;5012719;28;20093;-71
2021/12/09 08:03:09;;;;;;;44.28;21.10;;;0.50;99.90;;;;;;5007818;28;20049;-71
2021/12/09 08:05:37;;;;;;;46.33;21.17;;;0.50;99.90;;;;;;5009463;28;20046;-71
2021/12/09 08:08:05;;;;;;;33.38;20.60;;;0.50;99.90;;;;;;5008846;28;20067;-71
2021/12/09 08:10:32;;;;;;;41.10;20.15;;;0.50;99.90;;;;;;5006592;28;20053;-71
2021/12/09 08:12:59;;;;;;;42.15;20.67;;;0.50;99.90;;;;;;5006458;28;20088;-71
2021/12/09 08:15:27;;;;;;;41.53;20.70;;;0.50;99.90;;;;;;5009702;28;20033;-71
2021/12/09 08:18:02;;;;;;;40.40;20.83;;;0.60;99.90;;;;;;5002511;28;20092;-71
2021/12/09 08:20:29;;;;;;;45.42;22.65;;;0.60;99.90;;;;;;5008826;28;20038;-71
2021/12/09 08:22:55;;;;;;;44.03;22.33;;;0.60;99.90;;;;;;5006371;28;20046;-71
2021/12/09 08:25:22;;;;;;;44.60;21.73;;;0.70;99.90;;;;;;5010881;28;20041;-71
2021/12/09 08:27:47;;;;;;;51.88;22.10;;;0.70;99.90;;;;;;5008079;28;20415;-71
2021/12/09 08:30:17;;;;;;;37.90;20.50;;;0.70;99.90;;;;;;5009506;28;20271;-71
2021/12/09 08:32:43;;;;;;;45.97;20.42;;;0.70;99.90;;;;;;4989845;28;20046;-71
2021/12/09 08:35:09;;;;;;;37.75;20.55;;;0.70;99.90;;;;;;5010689;28;20480;-71
2021/12/09 08:37:35;;;;;;;37.67;20.45;;;0.80;99.90;;;;;;5009486;28;20176;-71
2021/12/09 08:40:02;;;;;;;42.75;21.15;;;0.80;99.90;;;;;;5012191;28;20540;-71
2021/12/09 08:42:27;;;;;;;37.95;21.70;;;0.80;99.90;;;;;;5007576;28;20040;-71
2021/12/09 08:44:54;;;;;;;36.75;21.60;;;0.90;99.90;;;;;;5008836;28;20396;-71
2021/12/09 08:47:20;;;;;;;41.55;20.65;;;0.90;99.90;;;;;;5014338;28;20125;-71
2021/12/09 08:49:46;;;;;;;37.65;20.13;;;0.90;99.90;;;;;;5014213;28;20125;-71
2021/12/09 08:52:13;;;;;;;38.13;20.00;;;1.00;99.90;;;;;;5012256;28;20142;-71
2021/12/09 08:54:38;;;;;;;38.75;20.17;;;1.00;99.90;;;;;;5012573;28;20041;-71
2021/12/09 08:57:04;;;;;;;34.58;18.73;;;1.10;99.90;;;;;;5010983;28;20447;-71
2021/12/09 08:59:31;;;;;;;42.03;20.42;;;1.10;99.90;;;;;;5009546;28;20046;-71
2021/12/09 09:01:57;;;;;;;39.47;18.70;;;1.10;99.90;;;;;;5006027;28;20052;-71
2021/12/09 09:04:23;;;;;;;38.20;18.67;;;1.10;99.90;;;;;;5009878;28;20412;-71
2021/12/09 09:06:53;;;;;;;36.67;18.48;;;1.10;99.90;;;;;;5010664;28;20056;-71
2021/12/09 09:09:19;;;;;;;36.97;19.35;;;1.10;99.90;;;;;;5015239;28;20049;-71
2021/12/09 09:11:45;;;;;;;36.58;18.70;;;1.10;99.90;;;;;;5009480;28;20046;-71
2021/12/09 09:14:11;;;;;;;31.77;19.27;;;1.20;99.90;;;;;;5011204;28;20104;-70
2021/12/09 09:16:38;;;;;;;30.60;17.85;;;1.20;99.90;;;;;;5005653;28;20467;-72
2021/12/09 09:19:04;;;;;;;35.95;18.67;;;1.20;99.90;;;;;;5010306;28;20046;-71
2021/12/09 09:21:31;;;;;;;36.15;18.33;;;1.30;99.90;;;;;;4998886;28;20053;-72
2021/12/09 09:23:56;;;;;;;33.28;17.25;;;1.30;99.90;;;;;;5010230;28;20075;-71
2021/12/09 09:26:22;;;;;;;30.02;16.98;;;1.30;99.90;;;;;;5019698;28;20038;-72
2021/12/09 09:28:54;;;;;;;30.83;16.85;;;1.40;99.90;;;;;;5008654;28;20038;-72
2021/12/09 09:31:21;;;;;;;33.47;16.83;;;1.40;99.90;;;;;;5007886;28;20044;-71
2021/12/09 09:33:46;;;;;;;31.45;17.58;;;1.40;99.90;;;;;;5002767;28;20049;-72
2021/12/09 09:36:12;;;;;;;27.30;16.45;;;1.50;99.90;;;;;;5008351;28;20042;-72
2021/12/09 09:38:38;;;;;;;28.45;16.65;;;1.50;99.90;;;;;;5004516;28;20141;-71
2021/12/09 09:41:10;;;;;;;30.77;15.13;;;1.50;99.90;;;;;;5007951;28;20038;-71
2021/12/09 09:46:17;;;;;;;29.92;14.95;;;1.70;99.90;;;;;;4994202;28;20048;-72
2021/12/09 09:48:48;;;;;;;31.17;15.57;;;1.70;99.90;;;;;;5007897;28;20073;-71
2021/12/09 09:51:15;;;;;;;28.10;14.02;;;1.80;99.90;;;;;;4988680;28;20089;-72
2021/12/09 09:53:42;;;;;;;32.20;14.43;;;1.80;99.90;;;;;;5002214;28;20048;-73
2021/12/09 09:56:14;;;;;;;22.42;13.45;;;1.90;99.90;;;;;;5006024;28;20099;-71
2021/12/09 09:58:41;;;;;;;23.45;12.98;;;2.00;99.90;;;;;;4977672;28;20612;-72
2021/12/09 10:01:07;;;;;;;25.58;13.02;;;2.00;99.90;;;;;;4974745;28;20162;-72
2021/12/09 10:03:40;;;;;;;28.30;13.60;;;2.10;99.90;;;;;;5007815;28;20199;-72
2021/12/09 10:06:06;;;;;;;21.85;12.07;;;2.10;99.90;;;;;;5013582;28;20424;-72
2021/12/09 10:08:32;;;;;;;26.25;12.25;;;2.10;99.90;;;;;;4998567;28;20072;-72
2021/12/09 10:10:58;;;;;;;18.40;11.57;;;2.20;99.90;;;;;;4982351;28;20503;-72
2021/12/09 10:13:30;;;;;;;27.17;11.52;;;2.30;99.90;;;;;;5008683;28;20033;-72
2021/12/09 10:15:57;;;;;;;24.08;11.13;;;2.40;99.90;;;;;;4979642;28;20053;-72
2021/12/09 10:18:40;;;;;;;23.10;11.15;;;2.40;99.90;;;;;;5009444;28;20034;-73
2021/12/09 10:21:09;;;;;;;20.15;10.35;;;2.50;99.90;;;;;;5004032;28;20042;-71
2021/12/09 10:23:37;;;;;;;24.05;10.35;;;2.50;99.90;;;;;;5004205;28;20038;-72
2021/12/09 10:26:19;;;;;;;17.83;10.88;;;2.60;99.90;;;;;;5007385;28;20045;-71
2021/12/09 10:28:52;;;;;;;17.70;9.73;;;2.60;99.90;;;;;;5007026;28;20045;-72
2021/12/09 10:31:29;;;;;;;17.38;9.43;;;2.70;99.90;;;;;;5009482;28;20073;-72
2021/12/09 10:34:28;;;;;;;22.70;9.50;;;2.80;99.90;;;;;;5013729;28;20608;-73
2021/12/09 10:36:58;;;;;;;22.48;9.80;;;2.80;99.90;;;;;;5030038;28;20049;-72
2021/12/09 10:39:37;;;;;;;19.38;9.43;;;2.80;99.90;;;;;;5005930;28;20044;-72
2021/12/09 10:42:12;;;;;;;17.17;9.07;;;2.80;99.90;;;;;;4997455;28;20041;-73
2021/12/09 10:44:43;;;;;;;15.80;9.73;;;2.90;99.90;;;;;;5008822;28;20045;-72
2021/12/09 10:47:14;;;;;;;19.45;9.65;;;2.90;99.90;;;;;;5015839;28;20069;-72
2021/12/09 10:49:53;;;;;;;23.92;11.60;;;2.90;99.90;;;;;;5000965;28;20049;-72
2021/12/09 10:52:20;;;;;;;27.58;11.50;;;2.90;99.90;;;;;;4998576;28;20488;-72
2021/12/09 10:54:46;;;;;;;23.42;11.73;;;3.00;99.90;;;;;;5003047;28;20046;-72
2021/12/09 10:57:26;;;;;;;20.35;11.18;;;3.00;99.90;;;;;;5005983;28;20073;-71
2021/12/09 10:59:53;;;;;;;24.90;10.80;;;3.00;99.90;;;;;;5008904;28;20113;-71
2021/12/09 11:02:19;;;;;;;20.20;10.93;;;3.00;99.90;;;;;;5008956;28;20029;-72
2021/12/09 11:05:06;;;;;;;23.48;11.73;;;3.00;99.90;;;;;;5010541;28;20084;-72
2021/12/09 11:07:32;;;;;;;23.58;11.48;;;3.10;99.90;;;;;;5010202;28;20061;-72
2021/12/09 11:10:21;;;;;;;25.17;11.73;;;3.00;99.90;;;;;;5009833;28;20057;-72
2021/12/09 11:12:58;;;;;;;22.90;11.95;;;3.10;99.90;;;;;;5007006;28;20041;-72
2021/12/09 11:15:45;;;;;;;22.63;11.13;;;3.10;99.90;;;;;;5010801;28;20030;-72
2021/12/09 11:18:35;;;;;;;23.38;11.25;;;3.20;99.90;;;;;;5007197;28;20050;-73
2021/12/09 11:21:05;;;;;;;21.90;12.38;;;3.20;99.90;;;;;;5004624;28;20049;-72
2021/12/09 11:23:42;;;;;;;21.60;11.52;;;3.20;99.90;;;;;;5006484;28;20038;-72
2021/12/09 11:26:35;;;;;;;22.95;11.18;;;3.30;99.90;;;;;;4985114;28;20109;-72
2021/12/09 11:29:08;;;;;;;20.25;10.85;;;3.30;99.90;;;;;;5010620;28;20045;-73
2021/12/09 11:31:40;;;;;;;22.10;11.85;;;3.30;99.90;;;;;;5011603;28;20042;-72
2021/12/09 11:34:13;;;;;;;25.35;11.73;;;3.30;99.90;;;;;;5011140;28;20041;-72
2021/12/09 11:37:09;;;;;;;19.92;11.82;;;3.30;99.90;;;;;;5011441;28;20054;-73
2021/12/09 11:39:36;;;;;;;18.73;12.00;;;3.30;99.90;;;;;;5014746;28;20061;-73
2021/12/09 11:42:17;;;;;;;23.33;11.52;;;3.40;99.90;;;;;;5011675;28;20106;-73
2021/12/09 11:44:45;;;;;;;24.17;13.23;;;3.40;99.90;;;;;;4991246;28;20041;-73
2021/12/09 11:47:12;;;;;;;28.10;13.15;;;3.50;99.90;;;;;;5006923;28;20050;-73
2021/12/09 11:49:38;;;;;;;29.00;13.27;;;3.50;99.90;;;;;;5005201;28;20096;-73
2021/12/09 11:52:04;;;;;;;26.30;13.82;;;3.50;99.90;;;;;;5009228;28;20450;-73
2021/12/09 11:54:30;;;;;;;25.98;12.77;;;3.50;99.90;;;;;;5006887;28;20049;-73
2021/12/09 11:57:29;;;;;;;30.40;14.60;;;3.60;99.90;;;;;;4992752;28;20116;-73
2021/12/09 12:11:22;;;;;;;33.50;15.57;;;3.50;99.90;;;;;;5010546;28;20077;-73
2021/12/09 12:14:03;;;;;;;29.88;14.85;;;3.60;99.90;;;;;;5009571;28;20034;-74
2021/12/09 12:16:51;;;;;;;29.90;15.82;;;3.60;99.90;;;;;;5011438;28;20064;-74
2021/12/09 12:19:36;;;;;;;35.15;16.00;;;3.60;99.90;;;;;;5007683;28;20049;-73
2021/12/09 12:23:25;;;;;;;26.55;14.63;;;3.60;99.90;;;;;;5002158;28;20050;-74
2021/12/09 12:31:59;;;;;;;33.55;16.35;;;3.60;99.90;;;;;;4994863;28;20050;-74
2021/12/09 12:39:31;;;;;;;35.10;16.77;;;3.80;99.90;;;;;;4998722;28;20408;-73
2021/12/09 12:42:14;;;;;;;30.95;17.08;;;3.70;99.90;;;;;;5016951;28;20436;-74
2021/12/09 12:45:10;;;;;;;34.97;17.02;;;3.70;99.90;;;;;;5016542;28;20045;-74
2021/12/09 12:47:42;;;;;;;34.10;18.20;;;3.80;99.90;;;;;;5015561;28;20081;-73
2021/12/09 12:50:09;;;;;;;;;;;3.80;99.90;;;;;;5022975;28;20097;-73
2021/12/09 12:52:37;;;;;;;36.50;20.23;;;3.80;99.90;;;;;;5015503;28;19944;-73
2021/12/09 12:55:14;;;;;;;40.65;19.15;;;3.80;99.90;;;;;;5011546;28;20053;-73
2021/12/09 12:57:44;;;;;;;34.30;18.13;;;3.80;99.90;;;;;;5017738;28;20069;-73
2021/12/09 13:00:42;;;;;;;35.45;18.52;;;3.70;99.90;;;;;;5006543;28;20037;-73
2021/12/09 13:03:19;;;;;;;40.15;18.92;;;3.80;99.90;;;;;;5014285;28;20084;-73
2021/12/09 13:06:04;;;;;;;37.00;19.00;;;3.80;99.90;;;;;;5022716;28;20129;-73
2021/12/09 13:09:12;;;;;;;32.97;19.15;;;3.80;99.90;;;;;;5016325;28;20124;-73
2021/12/09 13:11:47;;;;;;;39.05;19.75;;;3.90;99.90;;;;;;5016873;28;20046;-73
2021/12/09 13:14:24;;;;;;;40.80;21.00;;;3.90;99.90;;;;;;5015824;28;20717;-74
2021/12/09 13:17:02;;;;;;;35.67;20.45;;;3.90;99.90;;;;;;5015106;28;20038;-73
2021/12/09 13:19:37;;;;;;;37.95;21.15;;;4.00;99.90;;;;;;5010294;28;20037;-73